createdAt,value
2022-08-10T00:02:22.585Z,27.87
2022-08-10T00:04:51.688Z,27.86
2022-08-10T00:07:19.456Z,27.87
2022-08-10T00:09:50.627Z,27.86
2022-08-10T00:12:20.470Z,27.84
2022-08-10T00:14:48.570Z,27.86
2022-08-10T00:17:16.470Z,27.87
2022-08-10T00:20:03.224Z,27.86
2022-08-10T00:22:33.738Z,27.87
2022-08-10T00:25:01.747Z,27.86
2022-08-10T00:27:52.952Z,27.86
2022-08-10T00:30:17.553Z,27.86
2022-08-10T00:32:45.597Z,27.86
2022-08-10T00:35:13.456Z,27.81
2022-08-10T00:37:42.624Z,27.85
2022-08-10T00:40:35.171Z,27.86
2022-08-10T00:43:06.153Z,27.85
2022-08-10T00:45:34.105Z,27.85
2022-08-10T00:48:01.880Z,27.85
2022-08-10T00:50:29.835Z,27.86
2022-08-10T00:52:59.270Z,27.86
2022-08-10T00:55:27.358Z,27.86
2022-08-10T00:57:55.888Z,27.85
2022-08-10T01:00:23.871Z,27.85
2022-08-10T01:02:52.199Z,27.86
2022-08-10T01:05:20.552Z,27.85
2022-08-10T01:08:18.596Z,27.84
2022-08-10T01:10:53.751Z,27.84
2022-08-10T01:13:24.116Z,27.85
2022-08-10T01:15:56.298Z,27.85
2022-08-10T01:18:28.947Z,27.85
2022-08-10T01:21:41.923Z,27.85
2022-08-10T01:25:09.983Z,27.83
2022-08-10T01:27:41.777Z,27.83
2022-08-10T01:30:10.939Z,27.83
2022-08-10T01:32:49.283Z,27.83
2022-08-10T01:35:21.613Z,27.83
2022-08-10T01:37:53.242Z,27.84
2022-08-10T01:40:25.085Z,27.71
2022-08-10T01:42:53.738Z,27.84
2022-08-10T01:45:22.994Z,27.83
2022-08-10T01:48:16.761Z,27.83
2022-08-10T01:50:59.615Z,27.83
2022-08-10T01:53:40.074Z,27.81
2022-08-10T01:56:10.359Z,27.83
2022-08-10T01:58:38.317Z,27.83
2022-08-10T02:01:08.078Z,27.83
2022-08-10T02:03:35.928Z,27.83
2022-08-10T02:06:23.852Z,27.84
2022-08-10T02:09:06.010Z,27.84
2022-08-10T02:12:05.502Z,27.83
2022-08-10T02:14:23.180Z,27.83
2022-08-10T02:16:52.636Z,27.84
2022-08-10T02:19:22.925Z,27.83
2022-08-10T02:22:35.354Z,27.83
2022-08-10T02:24:39.424Z,27.84
2022-08-10T02:27:07.265Z,27.81
2022-08-10T02:29:35.133Z,27.83
2022-08-10T02:32:05.113Z,27.83
2022-08-10T02:34:34.493Z,27.83
2022-08-10T02:37:03.374Z,27.84
2022-08-10T02:39:38.959Z,27.83
2022-08-10T02:45:02.363Z,27.82
2022-08-10T02:45:29.195Z,27.83
2022-08-10T02:47:58.464Z,27.82
2022-08-10T02:50:27.976Z,27.81
2022-08-10T02:52:58.867Z,27.82
2022-08-10T02:55:32.559Z,27.81
2022-08-10T02:58:15.344Z,27.80
2022-08-10T03:00:48.246Z,27.81
2022-08-10T03:03:20.432Z,27.82
2022-08-10T03:05:49.394Z,27.81
2022-08-10T03:08:17.978Z,27.63
2022-08-10T03:10:45.762Z,27.76
2022-08-10T03:13:13.870Z,27.83
2022-08-10T03:15:41.700Z,27.81
2022-08-10T03:18:09.476Z,27.83
2022-08-10T03:20:40.150Z,27.82
2022-08-10T03:23:11.864Z,27.83
2022-08-10T03:25:39.650Z,27.83
2022-08-10T03:28:07.580Z,27.82
2022-08-10T03:30:35.392Z,27.82
2022-08-10T03:33:04.553Z,27.81
2022-08-10T03:35:32.343Z,27.82
2022-08-10T03:38:01.629Z,27.82
2022-08-10T03:40:32.328Z,27.81
2022-08-10T03:43:15.039Z,27.65
2022-08-10T03:45:54.771Z,27.81
2022-08-10T03:48:23.524Z,27.81
2022-08-10T03:50:52.704Z,27.81
2022-08-10T03:53:25.236Z,27.77
2022-08-10T03:56:26.820Z,27.78
2022-08-10T03:58:58.398Z,27.80
2022-08-10T04:02:46.582Z,27.81
2022-08-10T04:04:20.612Z,27.80
2022-08-10T04:06:54.782Z,27.81
2022-08-10T04:09:24.971Z,27.81
2022-08-10T04:12:11.903Z,27.79
2022-08-10T04:14:51.274Z,27.82
2022-08-10T04:17:59.507Z,27.81
2022-08-10T04:20:11.655Z,27.83
2022-08-10T04:22:39.790Z,27.83
2022-08-10T04:25:09.712Z,27.84
2022-08-10T04:27:37.601Z,27.78
2022-08-10T04:30:07.661Z,27.79
2022-08-10T04:32:35.993Z,27.83
2022-08-10T04:35:04.501Z,27.83
2022-08-10T04:37:32.311Z,27.81
2022-08-10T04:40:00.114Z,27.84
2022-08-10T04:42:29.358Z,27.83
2022-08-10T04:44:57.277Z,27.84
2022-08-10T04:47:57.257Z,27.83
2022-08-10T04:50:12.930Z,27.83
2022-08-10T04:52:44.476Z,27.83
2022-08-10T04:55:12.282Z,27.83
2022-08-10T04:57:41.563Z,27.83
2022-08-10T05:00:19.077Z,27.83
2022-08-10T05:02:47.647Z,27.79
2022-08-10T05:05:15.397Z,27.83
2022-08-10T05:07:53.722Z,27.83
2022-08-10T05:10:22.122Z,27.83
2022-08-10T05:12:51.585Z,27.83
2022-08-10T05:15:19.324Z,27.84
2022-08-10T05:18:08.326Z,27.79
2022-08-10T05:20:36.153Z,27.84
2022-08-10T05:23:04.429Z,27.83
2022-08-10T05:25:32.438Z,27.79
2022-08-10T05:28:06.324Z,27.84
2022-08-10T05:30:34.701Z,27.84
2022-08-10T05:33:06.705Z,27.86
2022-08-10T05:35:52.872Z,27.83
2022-08-10T05:38:26.388Z,27.84
2022-08-10T05:40:54.606Z,27.84
2022-08-10T05:43:24.166Z,27.84
2022-08-10T05:46:17.521Z,27.85
2022-08-10T05:48:59.489Z,27.84
2022-08-10T05:51:29.019Z,27.84
2022-08-10T05:54:02.966Z,27.85
2022-08-10T05:56:55.903Z,27.84
2022-08-10T06:00:33.270Z,27.84
2022-08-10T06:02:33.176Z,27.84
2022-08-10T06:04:59.785Z,27.81
2022-08-10T06:07:28.163Z,27.81
2022-08-10T06:09:59.080Z,27.83
2022-08-10T06:12:30.091Z,27.83
2022-08-10T06:15:06.074Z,27.84
2022-08-10T06:17:38.151Z,27.84
2022-08-10T06:20:07.066Z,27.83
2022-08-10T06:22:35.697Z,27.84
2022-08-10T06:27:51.562Z,27.85
2022-08-10T06:30:21.293Z,27.85
2022-08-10T06:32:49.600Z,27.85
2022-08-10T06:35:17.521Z,27.85
2022-08-10T06:37:51.524Z,27.85
2022-08-10T06:40:19.873Z,27.85
2022-08-10T06:42:49.281Z,27.85
2022-08-10T06:45:18.336Z,27.85
2022-08-10T06:47:47.984Z,27.83
2022-08-10T06:50:44.960Z,27.84
2022-08-10T06:53:07.140Z,27.85
2022-08-10T06:55:49.775Z,27.84
2022-08-10T06:58:18.345Z,27.85
2022-08-10T07:00:51.860Z,27.85
2022-08-10T07:03:21.830Z,27.85
2022-08-10T07:05:51.411Z,27.84
2022-08-10T07:08:19.821Z,27.85
2022-08-10T07:10:47.991Z,27.79
2022-08-10T07:14:17.316Z,27.71
2022-08-10T07:16:05.771Z,27.84
2022-08-10T07:18:35.226Z,27.85
2022-08-10T07:21:03.071Z,27.85
2022-08-10T07:23:59.665Z,27.86
2022-08-10T07:26:19.332Z,27.86
2022-08-10T07:28:48.296Z,27.86
2022-08-10T07:31:29.811Z,27.85
2022-08-10T07:34:07.564Z,27.84
2022-08-10T07:36:35.381Z,27.86
2022-08-10T07:39:04.982Z,27.85
2022-08-10T07:41:33.264Z,27.86
2022-08-10T07:44:03.023Z,27.70
2022-08-10T07:46:30.961Z,27.86
2022-08-10T07:49:00.789Z,27.85
2022-08-10T07:51:30.466Z,27.86
2022-08-10T07:53:58.231Z,27.85
2022-08-10T07:56:48.086Z,27.86
2022-08-10T07:59:16.402Z,27.85
2022-08-10T08:01:48.089Z,27.80
2022-08-10T08:04:16.370Z,27.84
2022-08-10T08:06:45.879Z,27.85
2022-08-10T08:09:13.752Z,27.84
2022-08-10T08:11:43.502Z,27.85
2022-08-10T08:14:11.766Z,27.84
2022-08-10T08:16:41.516Z,27.60
2022-08-10T08:24:10.319Z,27.85
2022-08-10T08:24:46.810Z,27.84
2022-08-10T08:27:16.758Z,27.85
2022-08-10T08:29:46.190Z,27.85
2022-08-10T08:32:14.473Z,27.84
2022-08-10T08:34:43.500Z,27.85
2022-08-10T08:37:13.316Z,27.85
2022-08-10T08:40:01.226Z,27.85
2022-08-10T08:42:55.942Z,27.86
2022-08-10T08:45:26.478Z,27.85
2022-08-10T08:48:10.287Z,27.77
2022-08-10T08:50:44.108Z,27.85
2022-08-10T08:53:22.920Z,27.81
2022-08-10T08:56:06.120Z,27.86
2022-08-10T08:58:45.171Z,27.85
2022-08-10T09:01:21.227Z,27.83
2022-08-10T09:03:55.757Z,27.65
2022-08-10T09:06:37.757Z,27.85
2022-08-10T09:09:32.576Z,27.84
2022-08-10T09:12:07.093Z,27.85
2022-08-10T09:14:38.344Z,27.84
2022-08-10T09:17:16.329Z,27.79
2022-08-10T09:19:48.241Z,27.67
2022-08-10T09:22:20.553Z,27.78
2022-08-10T09:24:51.442Z,27.84
2022-08-10T09:27:20.643Z,27.85
2022-08-10T09:29:55.993Z,27.85
2022-08-10T09:36:16.775Z,27.84
2022-08-10T09:36:22.103Z,27.85
2022-08-10T09:38:14.707Z,27.85
2022-08-10T09:40:58.920Z,27.79
2022-08-10T09:43:36.381Z,27.85
2022-08-10T09:46:11.787Z,27.85
2022-08-10T09:48:42.809Z,27.84
2022-08-10T09:51:43.639Z,27.86
2022-08-10T09:54:07.711Z,27.86
2022-08-10T09:56:46.569Z,27.85
2022-08-10T09:59:48.257Z,27.86
2022-08-10T10:02:11.087Z,27.86
2022-08-10T10:04:42.141Z,27.86
2022-08-10T10:07:10.360Z,27.86
2022-08-10T10:09:40.606Z,27.86
2022-08-10T10:12:16.755Z,27.86
2022-08-10T10:15:10.369Z,27.86
2022-08-10T10:18:23.357Z,27.85
2022-08-10T10:20:56.905Z,27.85
2022-08-10T10:23:30.838Z,27.86
2022-08-10T10:26:08.475Z,27.85
2022-08-10T10:29:19.639Z,27.86
2022-08-10T10:31:39.713Z,27.86
2022-08-10T10:34:23.180Z,27.87
2022-08-10T10:36:52.160Z,27.85
2022-08-10T10:39:24.072Z,27.87
2022-08-10T10:41:57.442Z,27.71
2022-08-10T10:44:42.339Z,27.87
2022-08-10T10:47:15.894Z,27.82
2022-08-10T10:49:50.926Z,27.88
2022-08-10T10:52:26.197Z,27.88
2022-08-10T10:55:00.127Z,27.89
2022-08-10T10:57:59.974Z,27.90
2022-08-10T11:00:18.332Z,27.89
2022-08-10T11:03:01.036Z,27.89
2022-08-10T11:05:33.563Z,27.89
2022-08-10T11:08:03.090Z,27.84
2022-08-10T11:10:34.793Z,27.90
2022-08-10T11:14:25.725Z,27.88
2022-08-10T11:16:05.596Z,27.90
2022-08-10T11:18:56.262Z,27.89
2022-08-10T11:21:29.332Z,27.84
2022-08-10T11:24:47.342Z,27.89
2022-08-10T11:26:50.696Z,27.72
2022-08-10T11:29:21.797Z,27.89
2022-08-10T11:31:55.214Z,27.90
2022-08-10T11:34:48.127Z,27.90
2022-08-10T11:37:26.081Z,27.81
2022-08-10T11:39:57.510Z,27.90
2022-08-10T11:42:35.678Z,27.90
2022-08-10T11:45:08.066Z,27.91
2022-08-10T11:47:40.749Z,27.68
2022-08-10T11:50:12.538Z,27.92
2022-08-10T11:52:45.335Z,27.92
2022-08-10T11:55:14.883Z,27.92
2022-08-10T11:57:54.501Z,27.93
2022-08-10T12:00:23.521Z,27.93
2022-08-10T12:02:54.858Z,27.93
2022-08-10T12:05:51.590Z,27.91
2022-08-10T12:10:09.636Z,27.94
2022-08-10T12:11:01.977Z,27.93
2022-08-10T12:13:31.401Z,27.92
2022-08-10T12:16:05.595Z,27.93
2022-08-10T12:18:37.716Z,27.73
2022-08-10T12:21:10.117Z,27.92
2022-08-10T12:24:02.837Z,27.93
2022-08-10T12:26:34.882Z,27.88
2022-08-10T12:29:04.533Z,27.90
2022-08-10T12:31:37.137Z,27.90
2022-08-10T12:34:09.889Z,27.94
2022-08-10T12:36:41.532Z,27.90
2022-08-10T12:39:15.771Z,27.90
2022-08-10T12:41:47.549Z,27.90
2022-08-10T12:44:17.383Z,27.90
2022-08-10T12:46:51.069Z,27.90
2022-08-10T12:49:21.517Z,27.91
2022-08-10T12:51:53.920Z,27.93
2022-08-10T12:54:32.767Z,27.91
2022-08-10T12:57:02.874Z,27.95
2022-08-10T12:59:30.829Z,27.81
2022-08-10T13:02:06.618Z,27.96
2022-08-10T13:04:40.370Z,27.75
2022-08-10T13:07:08.153Z,27.97
2022-08-10T13:09:55.724Z,27.94
2022-08-10T13:12:39.101Z,27.97
2022-08-10T13:15:44.583Z,27.98
2022-08-10T13:18:03.069Z,27.97
2022-08-10T13:20:37.277Z,27.91
2022-08-10T13:23:06.942Z,27.97
2022-08-10T13:25:38.137Z,27.97
2022-08-10T13:28:37.751Z,27.97
2022-08-10T13:30:56.536Z,27.96
2022-08-10T13:34:41.416Z,27.96
2022-08-10T13:36:17.142Z,27.97
2022-08-10T13:38:48.658Z,27.97
2022-08-10T13:41:17.313Z,27.90
2022-08-10T13:43:56.557Z,27.96
2022-08-10T13:46:24.560Z,27.96
2022-08-10T13:48:53.444Z,27.76
2022-08-10T13:51:53.757Z,27.98
2022-08-10T13:54:11.495Z,27.97
2022-08-10T13:56:39.413Z,27.98
2022-08-10T13:59:09.942Z,27.98
2022-08-10T14:01:38.262Z,27.99
2022-08-10T14:04:06.814Z,27.99
2022-08-10T14:06:36.067Z,27.98
2022-08-10T14:09:08.938Z,27.99
2022-08-10T14:11:38.485Z,28.00
2022-08-10T14:14:08.284Z,28.00
2022-08-10T14:16:36.196Z,28.00
2022-08-10T14:19:06.160Z,28.00
2022-08-10T14:21:39.857Z,28.00
2022-08-10T14:24:07.841Z,28.00
2022-08-10T14:26:35.614Z,28.01
2022-08-10T14:29:04.455Z,27.99
2022-08-10T14:31:35.365Z,27.94
2022-08-10T14:34:04.701Z,27.96
2022-08-10T14:36:37.946Z,28.00
2022-08-10T14:39:07.231Z,27.95
2022-08-10T14:42:01.748Z,27.94
2022-08-10T14:44:25.254Z,27.99
2022-08-10T14:46:55.739Z,28.00
2022-08-10T14:49:25.863Z,28.00
2022-08-10T14:51:57.769Z,27.89
2022-08-10T14:54:29.572Z,28.00
2022-08-10T14:56:58.078Z,28.00
2022-08-10T15:00:22.765Z,27.99
2022-08-10T15:02:39.856Z,28.02
2022-08-10T15:05:09.182Z,28.02
2022-08-10T15:07:37.562Z,28.03
2022-08-10T15:10:09.215Z,27.98
2022-08-10T15:12:38.279Z,28.03
2022-08-10T15:15:09.321Z,28.02
2022-08-10T15:17:39.621Z,27.89
2022-08-10T15:20:14.553Z,28.03
2022-08-10T15:22:46.897Z,28.04
2022-08-10T15:25:19.007Z,27.98
2022-08-10T15:27:53.358Z,28.02
2022-08-10T15:30:29.842Z,28.03
2022-08-10T15:33:21.470Z,28.01
2022-08-10T15:36:22.941Z,28.00
2022-08-10T15:38:58.949Z,28.03
2022-08-10T15:41:58.834Z,28.02
2022-08-10T15:44:36.660Z,28.02
2022-08-10T15:47:05.948Z,27.99
2022-08-10T15:49:39.636Z,28.03
2022-08-10T15:52:39.362Z,28.02
2022-08-10T15:55:42.883Z,28.03
2022-08-10T15:58:04.952Z,28.03
2022-08-10T16:00:32.808Z,28.03
2022-08-10T16:03:03.070Z,28.04
2022-08-10T16:06:00.457Z,28.04
2022-08-10T16:08:27.200Z,28.00
2022-08-10T16:10:56.885Z,28.03
2022-08-10T16:13:59.507Z,28.03
2022-08-10T16:16:15.321Z,28.04
2022-08-10T16:18:43.986Z,28.04
2022-08-10T16:21:15.139Z,28.02
2022-08-10T16:23:44.172Z,28.04
2022-08-10T16:26:15.397Z,28.05
2022-08-10T16:28:48.125Z,28.06
2022-08-10T16:31:18.018Z,28.06
2022-08-10T16:33:54.032Z,28.02
2022-08-10T16:36:22.603Z,28.08
2022-08-10T16:38:51.434Z,28.03
2022-08-10T16:42:01.947Z,28.09
2022-08-10T16:44:11.489Z,28.10
2022-08-10T16:46:42.421Z,28.10
2022-08-10T16:49:10.265Z,28.11
2022-08-10T16:51:38.459Z,27.98
2022-08-10T16:54:06.417Z,28.13
2022-08-10T16:56:43.576Z,28.14
2022-08-10T16:59:24.776Z,28.15
2022-08-10T17:01:54.407Z,28.14
2022-08-10T17:04:22.466Z,28.15
2022-08-10T17:06:55.859Z,28.16
2022-08-10T17:09:26.235Z,28.16
2022-08-10T17:11:55.693Z,28.17
2022-08-10T17:14:25.679Z,28.18
2022-08-10T17:16:54.358Z,28.16
2022-08-10T17:19:26.067Z,28.18
2022-08-10T17:21:56.053Z,28.08
2022-08-10T17:24:25.343Z,27.85
2022-08-10T17:26:53.241Z,28.19
2022-08-10T17:29:57.315Z,28.19
2022-08-10T17:32:16.181Z,28.18
2022-08-10T17:34:46.757Z,28.19
2022-08-10T17:37:17.082Z,28.20
2022-08-10T17:39:47.489Z,28.21
2022-08-10T17:42:20.815Z,28.22
2022-08-10T17:44:49.724Z,28.22
2022-08-10T17:47:19.068Z,28.22
2022-08-10T17:49:46.941Z,28.23
2022-08-10T17:52:19.996Z,28.20
2022-08-10T17:54:48.192Z,28.22
2022-08-10T17:57:18.573Z,28.23
2022-08-10T17:59:46.925Z,28.22
2022-08-10T18:02:17.945Z,28.04
2022-08-10T18:04:49.780Z,28.21
2022-08-10T18:07:17.614Z,28.03
2022-08-10T18:09:51.963Z,28.21
2022-08-10T18:12:29.130Z,28.22
2022-08-10T18:15:01.577Z,28.22
2022-08-10T18:17:38.469Z,28.04
2022-08-10T18:20:09.839Z,28.17
2022-08-10T18:22:43.289Z,28.22
2022-08-10T18:25:17.287Z,28.22
2022-08-10T18:28:01.338Z,28.22
2022-08-10T18:30:36.297Z,28.23
2022-08-10T18:33:05.729Z,28.23
2022-08-10T18:35:35.456Z,28.23
2022-08-10T18:38:03.352Z,28.16
2022-08-10T18:40:35.465Z,28.22
2022-08-10T18:43:07.379Z,28.23
2022-08-10T18:45:38.001Z,28.23
2022-08-10T18:48:07.854Z,28.24
2022-08-10T18:50:37.974Z,28.23
2022-08-10T18:53:13.174Z,28.28
2022-08-10T18:56:10.273Z,28.28
2022-08-10T18:58:50.902Z,28.29
2022-08-10T19:01:26.454Z,28.28
2022-08-10T19:04:04.453Z,28.29
2022-08-10T19:07:04.192Z,28.29
2022-08-10T19:09:50.047Z,28.30
2022-08-10T19:12:33.026Z,28.30
2022-08-10T19:15:06.999Z,28.31
2022-08-10T19:18:03.277Z,28.30
2022-08-10T19:20:31.708Z,28.32
2022-08-10T19:23:09.207Z,28.32
2022-08-10T19:26:40.699Z,28.31
2022-08-10T19:28:31.985Z,28.35
2022-08-10T19:31:04.057Z,28.34
2022-08-10T19:33:36.787Z,28.35
2022-08-10T19:36:09.697Z,28.35
2022-08-10T19:38:50.354Z,28.30
2022-08-10T19:41:30.950Z,28.17
2022-08-10T19:44:04.312Z,28.27
2022-08-10T19:46:37.178Z,28.32
2022-08-10T19:49:08.483Z,28.32
2022-08-10T19:51:42.585Z,28.32
2022-08-10T19:54:16.888Z,28.32
2022-08-10T19:56:50.857Z,28.27
2022-08-10T20:00:17.451Z,28.13
2022-08-10T20:02:23.081Z,28.27
2022-08-10T20:04:57.553Z,28.29
2022-08-10T20:07:31.279Z,28.28
2022-08-10T20:10:03.168Z,28.28
2022-08-10T20:12:35.873Z,28.21
2022-08-10T20:15:08.971Z,28.26
2022-08-10T20:17:52.123Z,28.25
2022-08-10T20:20:31.286Z,28.25
2022-08-10T20:23:03.606Z,28.24
2022-08-10T20:25:35.039Z,28.24
2022-08-10T20:28:06.444Z,28.23
2022-08-10T20:30:36.918Z,28.23
2022-08-10T20:33:13.246Z,28.22
2022-08-10T20:35:47.942Z,28.22
2022-08-10T20:38:19.015Z,28.21
2022-08-10T20:40:52.054Z,28.22
2022-08-10T20:43:25.410Z,28.21
2022-08-10T20:46:07.891Z,28.17
2022-08-10T20:48:39.284Z,28.20
2022-08-10T20:51:09.293Z,28.17
2022-08-10T20:53:42.459Z,28.19
2022-08-10T20:56:18.418Z,28.19
2022-08-10T20:59:00.557Z,28.19
2022-08-10T21:02:06.686Z,28.18
2022-08-10T21:04:42.385Z,28.15
2022-08-10T21:07:43.925Z,28.16
2022-08-10T21:10:22.589Z,28.16
2022-08-10T21:12:59.065Z,28.16
2022-08-10T21:15:41.866Z,28.15
2022-08-10T21:18:20.693Z,28.15
2022-08-10T21:20:54.574Z,27.96
2022-08-10T21:23:24.732Z,28.15
2022-08-10T21:26:08.335Z,28.14
2022-08-10T21:28:57.949Z,28.14
2022-08-10T21:31:55.279Z,28.13
2022-08-10T21:34:35.083Z,28.13
2022-08-10T21:37:07.930Z,28.13
2022-08-10T21:39:58.738Z,28.06
2022-08-10T21:42:53.356Z,28.13
2022-08-10T21:45:59.055Z,28.06
2022-08-10T21:48:57.644Z,28.11
2022-08-10T21:52:01.593Z,28.11
2022-08-10T21:54:54.190Z,28.10
2022-08-10T21:57:43.397Z,28.10
2022-08-10T22:00:30.105Z,28.10
2022-08-10T22:03:17.846Z,28.09
2022-08-10T22:06:06.626Z,28.09
2022-08-10T22:08:56.317Z,28.09
2022-08-10T22:11:42.737Z,28.09
2022-08-10T22:14:33.603Z,28.09
2022-08-10T22:17:59.169Z,28.08
2022-08-10T22:20:28.981Z,28.07
2022-08-10T22:23:27.363Z,28.07
2022-08-10T22:26:19.868Z,28.05
2022-08-10T22:29:07.878Z,28.07
2022-08-10T22:31:57.257Z,28.05
2022-08-10T22:34:53.670Z,28.06
2022-08-10T22:37:50.521Z,28.06
2022-08-10T22:40:38.205Z,27.91
2022-08-10T22:43:36.277Z,28.04
2022-08-10T22:46:23.637Z,28.05
2022-08-10T22:49:02.540Z,28.04
2022-08-10T22:51:36.139Z,28.05
2022-08-10T22:54:30.867Z,28.05
2022-08-10T22:57:18.453Z,28.06
2022-08-10T22:59:46.280Z,28.03
2022-08-10T23:02:17.517Z,28.05
2022-08-10T23:04:47.303Z,28.06
2022-08-10T23:07:20.604Z,28.04
2022-08-10T23:09:53.769Z,28.06
2022-08-10T23:12:24.221Z,28.06
2022-08-10T23:15:10.544Z,28.06
2022-08-10T23:18:01.249Z,28.05
2022-08-10T23:20:30.209Z,28.05
2022-08-10T23:23:04.753Z,27.99
2022-08-10T23:25:43.674Z,27.89
2022-08-10T23:28:39.364Z,28.05
2022-08-10T23:31:13.157Z,28.05
2022-08-10T23:33:41.038Z,28.04
2022-08-10T23:36:34.160Z,28.04
2022-08-10T23:39:00.783Z,28.04
2022-08-10T23:41:46.646Z,28.04
2022-08-10T23:44:21.278Z,28.04
2022-08-10T23:46:49.201Z,28.04
2022-08-10T23:49:16.988Z,28.04
2022-08-10T23:51:55.925Z,27.98
2022-08-10T23:54:24.799Z,27.93
2022-08-10T23:57:01.066Z,28.04
2022-08-10T23:59:29.481Z,28.04
